»·PEaware :: N9461C KTUS-KTUS

N9461C :: KTUS-KTUS

FLIGHT INFORMATION

Flight Status: Arrived
Operator: Privately registered:
United States
More flights under this callsign
Pilot: Anonymous 38517 (38517)
Aircraft: PIPER PA-28 CHEROKEE ARCHER
(P28A)
More flights by this aircraft type
Origin: KTUS Tucson Intl
United States
Destination: KTUS Tucson Intl
United States
More flights between these airports :: More routes between these airports
Route: TUS8 TUS
File this flight plan on PilotEdge
Remarks: Local practice approaches
Altitude:
(Current/Filed)
5,000ft
Speed:
(Current/Filed)
110kts
Departed: 14-Jun-23 04:45 PM
Arrived: 14-Jun-23 06:14 PM
Distance/Time
Traveled:
1nm/1:29
Distance/Time
To Go:
Arrived

Flight Plot

Page will automatically refresh every two minutes.

Flight plan parsing failed; only flown route is shown


Map Options




Map Legend


Flown Route
Filed Route
Departure Airport
Arrival Airport
Navaid (VOR, NDB)
Fix

Horizontal Profiles

Position Reports

Time Latitude Longitude Heading Altitude Ground
Speed
14-Jun-23 16:28 32.124941 -110.946230 336 2574ft 0kts
14-Jun-23 16:29 32.124941 -110.946230 336 2574ft 0kts
14-Jun-23 16:30 32.124941 -110.946230 336 2574ft 0kts
14-Jun-23 16:31 32.124941 -110.946230 336 2574ft 0kts
14-Jun-23 16:32 32.124941 -110.946230 336 2574ft 0kts
14-Jun-23 16:33 32.124941 -110.946230 336 2574ft 0kts
14-Jun-23 16:34 32.124941 -110.946230 336 2574ft 0kts
14-Jun-23 16:35 32.124941 -110.946230 336 2574ft 0kts
14-Jun-23 16:36 32.124337 -110.946387 150 2575ft 7kts
14-Jun-23 16:37 32.118461 -110.939619 134 2599ft 35kts
14-Jun-23 16:38 32.112722 -110.932816 140 2618ft 0kts
14-Jun-23 16:39 32.112721 -110.932816 140 2618ft 0kts
14-Jun-23 16:40 32.112721 -110.932816 140 2618ft 0kts
14-Jun-23 16:41 32.111618 -110.932142 200 2621ft 0kts
14-Jun-23 16:42 32.111618 -110.932142 200 2621ft 0kts
14-Jun-23 16:43 32.111607 -110.932147 199 2621ft 2kts
14-Jun-23 16:44 32.118955 -110.943195 308 2906ft 81kts
14-Jun-23 16:45 32.107410 -110.959761 198 3839ft 84kts
14-Jun-23 16:46 32.085035 -110.968425 199 4676ft 87kts
14-Jun-23 16:47 32.061793 -110.978112 199 5502ft 88kts
14-Jun-23 16:48 32.038627 -110.987771 199 6262ft 89kts
14-Jun-23 16:49 32.014647 -110.991080 150 6994ft 87kts
14-Jun-23 16:50 31.993300 -110.976276 149 7685ft 88kts
14-Jun-23 16:51 31.971734 -110.961292 149 8098ft 90kts
14-Jun-23 16:52 31.948846 -110.945796 149 8197ft 98kts
14-Jun-23 16:53 31.923221 -110.931604 148 8240ft 102kts
14-Jun-23 16:54 31.909409 -110.902131 109 8267ft 104kts
14-Jun-23 16:55 31.899776 -110.870166 109 8135ft 101kts
14-Jun-23 16:56 31.890645 -110.838281 108 8042ft 100kts
14-Jun-23 16:57 31.902225 -110.813836 27 7878ft 97kts
14-Jun-23 16:58 31.925746 -110.795458 33 7300ft 102kts
14-Jun-23 16:59 31.949721 -110.778039 28 6642ft 98kts
14-Jun-23 17:00 31.973604 -110.779636 313 6175ft 99kts
14-Jun-23 17:01 31.994559 -110.801097 320 5593ft 96kts
14-Jun-23 17:02 32.014915 -110.823045 315 5021ft 96kts
14-Jun-23 17:03 32.034370 -110.845570 315 4647ft 94kts
14-Jun-23 17:04 32.050144 -110.864932 310 4103ft 84kts
14-Jun-23 17:05 32.067096 -110.885448 315 3357ft 88kts
14-Jun-23 17:06 32.083992 -110.904396 314 3190ft 74kts
14-Jun-23 17:07 32.098199 -110.921981 313 3133ft 71kts
14-Jun-23 17:08 32.111372 -110.937696 314 3475ft 60kts
14-Jun-23 17:09 32.119977 -110.954991 288 3979ft 57kts
14-Jun-23 17:10 32.125983 -110.975082 288 4428ft 62kts
14-Jun-23 17:11 32.131753 -110.994460 288 4938ft 62kts
14-Jun-23 17:12 32.129832 -111.011477 185 5402ft 63kts
14-Jun-23 17:13 32.114610 -111.002203 158 5860ft 63kts
14-Jun-23 17:14 32.097590 -110.994648 158 6314ft 63kts
14-Jun-23 17:15 32.080388 -110.987023 158 6747ft 63kts
14-Jun-23 17:16 32.062964 -110.979312 158 7066ft 64kts
14-Jun-23 17:17 32.045555 -110.971606 158 7185ft 69kts
14-Jun-23 17:18 32.026796 -110.963320 159 7236ft 74kts
14-Jun-23 17:19 32.007614 -110.953234 156 7253ft 75kts
14-Jun-23 17:20 31.987353 -110.944210 159 7198ft 78kts
14-Jun-23 17:21 31.966369 -110.935000 159 7127ft 78kts
14-Jun-23 17:22 31.946206 -110.926171 159 7129ft 76kts
14-Jun-23 17:23 31.926056 -110.917347 159 7129ft 76kts
14-Jun-23 17:24 31.909189 -110.904202 108 7129ft 76kts
14-Jun-23 17:25 31.902810 -110.880538 105 7129ft 76kts
14-Jun-23 17:26 31.896186 -110.856617 108 7129ft 76kts
14-Jun-23 17:27 31.889463 -110.833068 108 7129ft 76kts
14-Jun-23 17:28 31.898197 -110.816224 27 6935ft 58kts
14-Jun-23 17:29 31.914112 -110.807129 38 6476ft 65kts
14-Jun-23 17:30 31.929472 -110.793026 31 6324ft 68kts
14-Jun-23 17:31 31.946440 -110.780063 33 6317ft 71kts
14-Jun-23 17:32 31.964054 -110.771800 327 6304ft 72kts
14-Jun-23 17:33 31.978946 -110.788603 319 5783ft 75kts
14-Jun-23 17:34 31.995122 -110.803886 321 5159ft 73kts
14-Jun-23 17:35 32.009976 -110.818716 317 4706ft 70kts
14-Jun-23 17:36 32.025327 -110.835860 315 4651ft 72kts
14-Jun-23 17:37 32.039153 -110.851846 315 4442ft 66kts
14-Jun-23 17:38 32.052056 -110.867212 314 3842ft 65kts
14-Jun-23 17:39 32.064957 -110.882667 314 3312ft 63kts
14-Jun-23 17:40 32.077798 -110.897818 315 3295ft 63kts
14-Jun-23 17:41 32.090922 -110.913004 315 3274ft 63kts
14-Jun-23 17:42 32.103810 -110.927921 314 3275ft 64kts
14-Jun-23 17:43 32.115748 -110.943679 284 3703ft 63kts
14-Jun-23 17:44 32.121616 -110.963540 288 4144ft 62kts
14-Jun-23 17:45 32.127614 -110.983513 288 4549ft 63kts
14-Jun-23 17:46 32.137704 -111.000475 308 4919ft 63kts
14-Jun-23 17:47 32.149133 -111.016821 308 5279ft 63kts
14-Jun-23 17:48 32.160593 -111.033207 308 5618ft 64kts
14-Jun-23 17:49 32.167888 -111.043634 308 5825ft 64kts
14-Jun-23 17:50 32.176827 -111.056409 308 6073ft 64kts
14-Jun-23 17:51 32.188564 -111.073197 309 6161ft 67kts
14-Jun-23 17:52 32.200749 -111.090577 309 6175ft 67kts
14-Jun-23 17:53 32.212936 -111.107940 309 6150ft 68kts
14-Jun-23 17:54 32.225087 -111.125251 309 6130ft 68kts
14-Jun-23 17:55 32.237248 -111.142572 309 6111ft 68kts
14-Jun-23 17:56 32.249390 -111.159866 309 6093ft 68kts
14-Jun-23 17:57 32.261548 -111.177181 309 6076ft 68kts
14-Jun-23 17:58 32.273802 -111.194479 316 6068ft 68kts
14-Jun-23 17:59 32.288861 -111.186120 48 6072ft 67kts
14-Jun-23 18:00 32.294481 -111.166948 99 6105ft 66kts
14-Jun-23 18:01 32.289405 -111.145793 116 6129ft 66kts
14-Jun-23 18:02 32.277083 -111.128452 132 5800ft 67kts
14-Jun-23 18:03 32.264117 -111.112304 134 5630ft 67kts
14-Jun-23 18:04 32.250790 -111.096582 135 5551ft 64kts
14-Jun-23 18:05 32.237412 -111.081399 136 5289ft 64kts
14-Jun-23 18:07 32.224249 -111.066035 133 5081ft 65kts
14-Jun-23 18:08 32.211233 -111.050102 135 4863ft 65kts
14-Jun-23 18:09 32.197851 -111.034885 136 4597ft 78kts
14-Jun-23 18:10 32.179230 -111.014126 136 4135ft 92kts
14-Jun-23 18:11 32.160503 -110.992481 134 3660ft 93kts
14-Jun-23 18:12 32.143233 -110.971261 133 3160ft 75kts
14-Jun-23 18:13 32.128457 -110.953798 136 2721ft 72kts
14-Jun-23 18:14 32.118669 -110.942286 131 2594ft 23kts
14-Jun-23 18:15 32.118705 -110.940930 357 2596ft 0kts
14-Jun-23 18:16 32.124359 -110.946516 313 2574ft 21kts

Navigation Log

Ident Type
Flight plan parsing failed, navigation log unavailable